createdAt,value
2017-04-23T00:01:08.585Z,5.55
2017-04-23T00:02:19.611Z,5.57
2017-04-23T00:03:30.626Z,5.48
2017-04-23T00:04:41.640Z,5.6
2017-04-23T00:05:52.718Z,5.51
2017-04-23T00:07:03.735Z,5.52
2017-04-23T00:08:14.761Z,5.55
2017-04-23T00:09:25.775Z,5.51
2017-04-23T00:10:37.199Z,5.51
2017-04-23T00:11:48.229Z,5.48
2017-04-23T00:12:59.269Z,5.51
2017-04-23T00:14:10.299Z,5.52
2017-04-23T00:15:21.335Z,5.48
2017-04-23T00:16:32.402Z,5.52
2017-04-23T00:17:43.640Z,5.49
2017-04-23T00:18:54.873Z,5.51
2017-04-23T00:20:05.904Z,5.34
2017-04-23T00:21:16.925Z,5.42
2017-04-23T00:22:28.149Z,5.46
2017-04-23T00:23:39.184Z,5.39
2017-04-23T00:24:50.425Z,5.42
2017-04-23T00:26:01.650Z,5.34
2017-04-23T00:27:12.666Z,5.49
2017-04-23T00:28:23.675Z,5.46
2017-04-23T00:29:34.692Z,5.37
2017-04-23T00:30:45.714Z,5.45
2017-04-23T00:31:56.949Z,5.42
2017-04-23T00:33:07.982Z,5.45
2017-04-23T00:34:19.006Z,5.48
2017-04-23T00:35:30.034Z,5.44
2017-04-23T00:36:41.070Z,5.49
2017-04-23T00:37:52.086Z,5.49
2017-04-23T00:39:03.372Z,5.46
2017-04-23T00:40:14.590Z,5.52
2017-04-23T00:41:25.635Z,5.59
2017-04-23T00:42:36.666Z,5.51
2017-04-23T00:43:47.686Z,5.52
2017-04-23T00:44:58.695Z,5.52
2017-04-23T00:46:09.710Z,5.54
2017-04-23T00:47:20.733Z,5.45
2017-04-23T00:48:31.815Z,5.52
2017-04-23T00:49:43.049Z,5.59
2017-04-23T00:50:54.078Z,5.57
2017-04-23T00:52:05.100Z,5.6
2017-04-23T00:53:16.122Z,5.57
2017-04-23T00:54:27.357Z,5.59
2017-04-23T00:55:38.387Z,5.63
2017-04-23T00:56:49.601Z,5.54
2017-04-23T00:58:00.623Z,5.55
2017-04-23T00:59:11.687Z,5.62
2017-04-23T01:00:22.719Z,5.63
2017-04-23T01:01:33.745Z,5.6
2017-04-23T01:02:44.760Z,5.57
2017-04-23T01:03:55.788Z,5.55
2017-04-23T01:05:07.061Z,5.6
2017-04-23T01:06:18.086Z,5.57
2017-04-23T01:07:29.111Z,5.63
2017-04-23T01:08:40.129Z,5.63
2017-04-23T01:09:51.167Z,5.6
2017-04-23T01:11:02.194Z,5.55
2017-04-23T01:12:13.228Z,5.51
2017-04-23T01:13:24.262Z,5.57
2017-04-23T01:14:35.482Z,5.52
2017-04-23T01:15:46.698Z,5.55
2017-04-23T01:16:58.130Z,5.54
2017-04-23T01:18:09.141Z,5.55
2017-04-23T01:19:20.374Z,5.55
2017-04-23T01:20:31.406Z,5.52
2017-04-23T01:21:42.475Z,5.54
2017-04-23T01:22:53.494Z,5.55
2017-04-23T01:24:04.529Z,5.54
2017-04-23T01:25:15.795Z,5.52
2017-04-23T01:26:26.831Z,5.52
2017-04-23T01:27:37.845Z,5.54
2017-04-23T01:28:48.864Z,5.51
2017-04-23T01:29:59.896Z,5.51
2017-04-23T01:31:10.927Z,5.54
2017-04-23T01:32:21.993Z,5.44
2017-04-23T01:33:33.025Z,5.42
2017-04-23T01:34:44.043Z,5.39
2017-04-23T01:35:55.072Z,5.46
2017-04-23T01:37:06.092Z,5.44
2017-04-23T01:38:17.114Z,5.44
2017-04-23T01:39:28.168Z,5.39
2017-04-23T01:40:39.382Z,5.41
2017-04-23T01:41:50.405Z,5.41
2017-04-23T01:43:01.480Z,5.39
2017-04-23T01:44:12.700Z,5.41
2017-04-23T01:45:23.722Z,5.39
2017-04-23T01:46:34.745Z,5.42
2017-04-23T01:47:45.761Z,5.41
2017-04-23T01:48:56.837Z,5.33
2017-04-23T01:50:07.857Z,5.3
2017-04-23T01:51:19.080Z,5.33
2017-04-23T01:52:30.110Z,5.33
2017-04-23T01:53:41.335Z,5.31
2017-04-23T01:54:52.568Z,5.3
2017-04-23T01:56:03.589Z,5.37
2017-04-23T01:57:14.816Z,5.41
2017-04-23T01:58:26.056Z,5.39
2017-04-23T01:59:37.088Z,5.34
2017-04-23T02:00:48.121Z,5.37
2017-04-23T02:01:59.145Z,5.39
2017-04-23T02:03:10.161Z,5.41
2017-04-23T02:04:21.387Z,5.39
2017-04-23T02:05:32.410Z,5.39
2017-04-23T02:06:43.422Z,5.41
2017-04-23T02:07:54.443Z,5.41
2017-04-23T02:09:05.473Z,5.44
2017-04-23T02:10:16.750Z,5.37
2017-04-23T02:11:27.776Z,5.36
2017-04-23T02:12:39.202Z,5.36
2017-04-23T02:13:50.234Z,5.34
2017-04-23T02:15:01.264Z,5.3
2017-04-23T02:16:12.300Z,5.33
2017-04-23T02:17:23.336Z,5.3
2017-04-23T02:18:34.549Z,5.3
2017-04-23T02:19:45.576Z,5.33
2017-04-23T02:20:56.641Z,5.26
2017-04-23T02:22:07.667Z,5.27
2017-04-23T02:23:18.703Z,5.28
2017-04-23T02:24:29.745Z,5.23
2017-04-23T02:25:40.769Z,5.21
2017-04-23T02:26:51.792Z,5.18
2017-04-23T02:28:02.818Z,5.13
2017-04-23T02:29:13.850Z,5.21
2017-04-23T02:30:24.880Z,5.12
2017-04-23T02:31:35.965Z,5.12
2017-04-23T02:32:47.001Z,5.02
2017-04-23T02:33:58.022Z,5.08
2017-04-23T02:35:09.046Z,5.03
2017-04-23T02:36:20.061Z,5
2017-04-23T02:37:31.075Z,5.03
2017-04-23T02:38:42.097Z,5
2017-04-23T02:39:53.346Z,4.94
2017-04-23T02:41:04.369Z,4.85
2017-04-23T02:42:15.594Z,4.97
2017-04-23T02:43:27.062Z,4.88
2017-04-23T02:44:38.077Z,4.9
2017-04-23T02:45:49.305Z,4.92
2017-04-23T02:47:00.325Z,4.92
2017-04-23T02:48:11.346Z,4.94
2017-04-23T02:49:22.576Z,4.91
2017-04-23T02:50:33.596Z,4.79
2017-04-23T02:51:44.622Z,4.87
2017-04-23T02:52:55.689Z,4.79
2017-04-23T02:54:06.918Z,4.79
2017-04-23T02:55:17.936Z,4.78
2017-04-23T02:56:29.171Z,4.74
2017-04-23T02:57:40.199Z,4.74
2017-04-23T02:58:51.223Z,4.72
2017-04-23T03:00:02.446Z,4.72
2017-04-23T03:01:13.466Z,4.72
2017-04-23T03:02:24.495Z,4.79
2017-04-23T03:03:35.565Z,4.68
2017-04-23T03:04:46.598Z,4.68
2017-04-23T03:05:57.629Z,4.68
2017-04-23T03:07:08.652Z,4.71
2017-04-23T03:08:19.662Z,4.65
2017-04-23T03:09:30.897Z,4.64
2017-04-23T03:10:41.930Z,4.68
2017-04-23T03:11:53.167Z,4.6
2017-04-23T03:13:04.210Z,4.66
2017-04-23T03:14:15.235Z,4.57
2017-04-23T03:15:26.252Z,4.54
2017-04-23T03:16:37.749Z,4.61
2017-04-23T03:17:48.776Z,4.51
2017-04-23T03:18:59.797Z,4.57
2017-04-23T03:20:10.825Z,4.56
2017-04-23T03:21:21.860Z,4.48
2017-04-23T03:22:32.891Z,4.48
2017-04-23T03:23:43.914Z,4.48
2017-04-23T03:24:54.935Z,4.5
2017-04-23T03:26:06.017Z,4.35
2017-04-23T03:27:17.048Z,4.42
2017-04-23T03:28:28.080Z,4.39
2017-04-23T03:29:39.108Z,4.4
2017-04-23T03:30:50.127Z,4.39
2017-04-23T03:32:01.164Z,4.42
2017-04-23T03:33:12.193Z,4.32
2017-04-23T03:34:23.439Z,4.36
2017-04-23T03:35:34.475Z,4.29
2017-04-23T03:36:45.507Z,4.38
2017-04-23T03:37:56.536Z,4.38
2017-04-23T03:39:07.560Z,4.36
2017-04-23T03:40:18.633Z,4.36
2017-04-23T03:41:29.653Z,4.32
2017-04-23T03:42:40.679Z,4.22
2017-04-23T03:43:51.700Z,4.22
2017-04-23T03:45:02.719Z,4.28
2017-04-23T03:46:13.755Z,4.24
2017-04-23T03:47:24.772Z,4.2
2017-04-23T03:48:35.791Z,4.28
2017-04-23T03:49:46.829Z,4.33
2017-04-23T03:50:57.908Z,4.2
2017-04-23T03:52:08.935Z,4.18
2017-04-23T03:53:19.959Z,4.21
2017-04-23T03:54:31.179Z,4.26
2017-04-23T03:55:42.601Z,4.2
2017-04-23T03:56:53.681Z,4.21
2017-04-23T03:58:04.698Z,4.2
2017-04-23T03:59:15.709Z,4.12
2017-04-23T04:00:26.938Z,4.18
2017-04-23T04:01:37.958Z,4.18
2017-04-23T04:02:48.988Z,4.24
2017-04-23T04:04:00.021Z,4.18
2017-04-23T04:05:11.246Z,4.18
2017-04-23T04:06:22.261Z,4.2
2017-04-23T04:07:33.334Z,4.18
2017-04-23T04:08:44.574Z,4.2
2017-04-23T04:09:55.621Z,4.24
2017-04-23T04:11:06.647Z,4.2
2017-04-23T04:12:17.670Z,4.21
2017-04-23T04:13:28.694Z,4.21
2017-04-23T04:14:39.721Z,4.28
2017-04-23T04:15:50.745Z,4.18
2017-04-23T04:17:01.763Z,4.22
2017-04-23T04:18:12.830Z,4.2
2017-04-23T04:19:23.862Z,4.18
2017-04-23T04:20:34.880Z,4.24
2017-04-23T04:21:45.897Z,4.18
2017-04-23T04:22:56.916Z,4.2
2017-04-23T04:24:07.939Z,4.21
2017-04-23T04:25:18.964Z,4.2
2017-04-23T04:26:29.996Z,4.22
2017-04-23T04:27:41.240Z,4.17
2017-04-23T04:28:52.329Z,4.21
2017-04-23T04:30:03.346Z,4.26
2017-04-23T04:31:14.564Z,4.18
2017-04-23T04:32:25.587Z,4.21
2017-04-23T04:33:36.814Z,4.18
2017-04-23T04:34:47.901Z,4.18
2017-04-23T04:35:58.919Z,4.14
2017-04-23T04:37:09.932Z,4.15
2017-04-23T04:38:20.945Z,4.22
2017-04-23T04:39:32.179Z,4.2
2017-04-23T04:40:43.202Z,4.21
2017-04-23T04:41:54.419Z,4.28
2017-04-23T04:43:05.435Z,4.36
2017-04-23T04:44:16.667Z,4.42
2017-04-23T04:45:27.894Z,4.4
2017-04-23T04:46:38.966Z,4.51
2017-04-23T04:47:49.992Z,4.42
2017-04-23T04:49:01.215Z,4.48
2017-04-23T04:50:12.237Z,4.48
2017-04-23T04:51:23.454Z,4.57
2017-04-23T04:52:34.879Z,4.57
2017-04-23T04:53:45.910Z,4.6
2017-04-23T04:54:57.128Z,4.66
2017-04-23T04:56:08.603Z,4.6
2017-04-23T04:57:20.028Z,4.68
2017-04-23T04:58:31.047Z,4.61
2017-04-23T04:59:42.073Z,4.6
2017-04-23T05:00:53.094Z,4.68
2017-04-23T05:02:04.127Z,4.58
2017-04-23T05:03:15.149Z,4.69
2017-04-23T05:04:26.173Z,4.65
2017-04-23T05:05:37.208Z,4.61
2017-04-23T05:06:48.286Z,4.74
2017-04-23T05:07:59.313Z,4.75
2017-04-23T05:09:10.536Z,4.78
2017-04-23T05:10:21.556Z,4.76
2017-04-23T05:11:32.784Z,4.75
2017-04-23T05:12:43.817Z,4.79
2017-04-23T05:13:54.870Z,4.85
2017-04-23T05:15:05.891Z,4.84
2017-04-23T05:16:16.921Z,4.97
2017-04-23T05:17:27.945Z,4.91
2017-04-23T05:18:38.978Z,4.92
2017-04-23T05:19:50.011Z,5.02
2017-04-23T05:21:01.045Z,5.02
2017-04-23T05:22:12.080Z,5.21
2017-04-23T05:23:23.292Z,5.13
2017-04-23T05:24:34.318Z,5.31
2017-04-23T05:25:45.550Z,5.36
2017-04-23T05:26:56.769Z,5.45
2017-04-23T05:28:07.797Z,5.45
2017-04-23T05:29:18.863Z,5.52
2017-04-23T05:30:29.892Z,5.52
2017-04-23T05:31:40.918Z,5.45
2017-04-23T05:32:51.953Z,5.44
2017-04-23T05:34:02.978Z,5.46
2017-04-23T05:35:14.191Z,5.54
2017-04-23T05:36:25.210Z,5.36
2017-04-23T05:37:36.231Z,5.45
2017-04-23T05:38:47.313Z,5.42
2017-04-23T05:39:58.344Z,5.42
2017-04-23T05:41:09.380Z,5.46
2017-04-23T05:42:20.409Z,5.46
2017-04-23T05:43:31.436Z,5.45
2017-04-23T05:44:42.666Z,5.54
2017-04-23T05:45:53.701Z,5.51
2017-04-23T05:47:04.937Z,5.52
2017-04-23T05:48:15.966Z,5.62
2017-04-23T05:49:27.242Z,5.67
2017-04-23T05:50:38.479Z,5.75
2017-04-23T05:51:49.506Z,5.78
2017-04-23T05:53:00.521Z,5.82
2017-04-23T05:54:11.954Z,5.84
2017-04-23T05:55:22.979Z,5.95
2017-04-23T05:56:34.006Z,6.02
2017-04-23T05:57:45.045Z,6
2017-04-23T05:58:56.270Z,6.06
2017-04-23T06:00:07.304Z,6.2
2017-04-23T06:01:18.330Z,6.21
2017-04-23T06:02:29.367Z,6.29
2017-04-23T06:03:40.393Z,6.29
2017-04-23T06:04:51.419Z,6.37
2017-04-23T06:06:02.447Z,6.39
2017-04-23T06:07:13.467Z,6.4
2017-04-23T06:08:24.504Z,6.44
2017-04-23T06:09:35.533Z,6.51
2017-04-23T06:10:46.613Z,6.62
2017-04-23T06:11:57.642Z,6.83
2017-04-23T06:13:08.673Z,6.91
2017-04-23T06:14:19.705Z,6.97
2017-04-23T06:15:30.937Z,7.08
2017-04-23T06:16:41.948Z,7.16
2017-04-23T06:17:52.983Z,7.13
2017-04-23T06:19:04.008Z,7.21
2017-04-23T06:20:15.233Z,7.29
2017-04-23T06:21:26.311Z,7.48
2017-04-23T06:22:37.336Z,7.59
2017-04-23T06:23:48.362Z,7.61
2017-04-23T06:24:59.396Z,7.55
2017-04-23T06:26:10.429Z,7.59
2017-04-23T06:27:21.652Z,7.56
2017-04-23T06:28:32.679Z,7.54
2017-04-23T06:29:43.711Z,7.45
2017-04-23T06:30:54.951Z,7.54
2017-04-23T06:32:06.029Z,7.54
2017-04-23T06:33:17.053Z,7.68
2017-04-23T06:34:28.084Z,7.61
2017-04-23T06:35:39.124Z,7.61
2017-04-23T06:36:50.153Z,7.47
2017-04-23T06:38:01.228Z,7.51
2017-04-23T06:39:12.291Z,7.39
2017-04-23T06:40:23.314Z,7.58
2017-04-23T06:41:34.337Z,8.1
2017-04-23T06:42:45.562Z,8.4
2017-04-23T06:43:56.590Z,8.83
2017-04-23T06:45:07.616Z,9.27
2017-04-23T06:46:18.665Z,9.7
2017-04-23T06:47:30.096Z,9.95
2017-04-23T06:48:41.144Z,10.33
2017-04-23T06:49:52.227Z,10.75
2017-04-23T06:51:03.867Z,10.76
2017-04-23T06:52:15.091Z,10.42
2017-04-23T06:53:26.317Z,10.08
2017-04-23T06:54:37.351Z,9.66
2017-04-23T06:55:48.386Z,9.59
2017-04-23T06:56:59.408Z,9.35
2017-04-23T06:58:10.438Z,9.27
2017-04-23T06:59:21.515Z,9.17
2017-04-23T07:00:32.750Z,8.98
2017-04-23T07:01:43.983Z,8.85
2017-04-23T07:02:55.014Z,8.83
2017-04-23T07:04:06.058Z,8.69
2017-04-23T07:05:17.280Z,8.64
2017-04-23T07:06:28.307Z,8.58
2017-04-23T07:07:39.347Z,8.52
2017-04-23T07:08:50.375Z,8.5
2017-04-23T07:10:01.662Z,8.44
2017-04-23T07:11:12.690Z,8.34
2017-04-23T07:12:23.707Z,8.35
2017-04-23T07:13:34.739Z,8.29
2017-04-23T07:14:45.771Z,8.25
2017-04-23T07:15:56.798Z,8.31
2017-04-23T07:17:07.817Z,8.32
2017-04-23T07:18:18.850Z,8.35
2017-04-23T07:19:29.897Z,8.39
2017-04-23T07:20:40.983Z,8.47
2017-04-23T07:21:52.009Z,8.61
2017-04-23T07:23:03.037Z,8.77
2017-04-23T07:24:14.067Z,8.74
2017-04-23T07:25:25.108Z,8.62
2017-04-23T07:26:36.138Z,8.49
2017-04-23T07:27:47.159Z,8.53
2017-04-23T07:28:58.201Z,8.61
2017-04-23T07:30:09.229Z,8.44
2017-04-23T07:31:20.244Z,8.47
2017-04-23T07:32:31.320Z,8.43
2017-04-23T07:33:42.355Z,8.44
2017-04-23T07:34:53.585Z,8.43
2017-04-23T07:36:04.621Z,8.71
2017-04-23T07:37:15.660Z,9.03
2017-04-23T07:38:26.685Z,9.26
2017-04-23T07:39:37.910Z,9.48
2017-04-23T07:40:49.344Z,9.75
2017-04-23T07:42:00.415Z,10.07
2017-04-23T07:43:11.452Z,10.42
2017-04-23T07:44:22.490Z,10.88
2017-04-23T07:45:33.728Z,11.34
2017-04-23T07:46:44.967Z,11.91
2017-04-23T07:47:56.017Z,12.38
2017-04-23T07:49:07.051Z,12.96
2017-04-23T07:50:18.094Z,12.89
2017-04-23T07:51:29.112Z,12.69
2017-04-23T07:52:40.200Z,12.7
2017-04-23T07:53:51.267Z,12.59
2017-04-23T07:55:02.313Z,12.41
2017-04-23T07:56:13.342Z,12.4
2017-04-23T07:57:24.568Z,12.1
2017-04-23T07:58:35.612Z,11.98
2017-04-23T07:59:46.854Z,11.57
2017-04-23T08:00:57.893Z,11.38
2017-04-23T08:02:08.918Z,11.31
2017-04-23T08:03:20.419Z,11.27
2017-04-23T08:04:31.459Z,11.46
2017-04-23T08:05:42.497Z,11.46
2017-04-23T08:06:53.531Z,11.52
2017-04-23T08:08:04.562Z,11.46
2017-04-23T08:09:15.607Z,11.35
2017-04-23T08:10:26.856Z,11.24
2017-04-23T08:11:38.098Z,11.3
2017-04-23T08:12:49.154Z,11.12
2017-04-23T08:14:00.401Z,11.09
2017-04-23T08:15:11.719Z,11.02
2017-04-23T08:16:22.770Z,10.9
2017-04-23T08:17:33.810Z,10.85
2017-04-23T08:18:44.867Z,10.73
2017-04-23T08:19:55.908Z,10.76
2017-04-23T08:21:06.958Z,10.79
2017-04-23T08:22:17.986Z,10.76
2017-04-23T08:23:29.011Z,10.69
2017-04-23T08:24:40.088Z,10.46
2017-04-23T08:25:51.114Z,10.44
2017-04-23T08:27:02.548Z,10.29
2017-04-23T08:28:13.585Z,10.33
2017-04-23T08:29:24.619Z,10.13
2017-04-23T08:30:35.647Z,9.99
2017-04-23T08:31:46.873Z,9.98
2017-04-23T08:32:57.901Z,9.89
2017-04-23T08:34:08.925Z,9.9
2017-04-23T08:35:19.999Z,10.11
2017-04-23T08:36:31.031Z,10.47
2017-04-23T08:37:42.064Z,10.8
2017-04-23T08:38:53.098Z,11.27
2017-04-23T08:40:04.120Z,11.75
2017-04-23T08:41:15.206Z,12.08
2017-04-23T08:42:26.234Z,12.44
2017-04-23T08:43:37.465Z,12.45
2017-04-23T08:44:48.509Z,12.47
2017-04-23T08:45:59.595Z,12.55
2017-04-23T08:47:10.836Z,12.58
2017-04-23T08:48:21.881Z,12.56
2017-04-23T08:49:32.939Z,12.81
2017-04-23T08:50:43.969Z,12.84
2017-04-23T08:51:55.206Z,13.02
2017-04-23T08:53:06.250Z,12.84
2017-04-23T08:54:17.272Z,12.65
2017-04-23T08:55:28.307Z,12.56
2017-04-23T08:56:39.396Z,12.23
2017-04-23T08:57:50.634Z,11.97
2017-04-23T08:59:01.678Z,11.75
2017-04-23T09:00:12.710Z,11.57
2017-04-23T09:01:23.942Z,11.59
2017-04-23T09:02:35.180Z,11.33
2017-04-23T09:03:46.210Z,11.43
2017-04-23T09:04:57.252Z,11.6
2017-04-23T09:06:08.273Z,12.26
2017-04-23T09:07:19.359Z,12.91
2017-04-23T09:08:30.600Z,13.27
2017-04-23T09:09:41.830Z,13.42
2017-04-23T09:10:52.861Z,13.48
2017-04-23T09:12:03.905Z,13.37
2017-04-23T09:13:14.940Z,13.14
2017-04-23T09:14:25.974Z,13.13
2017-04-23T09:15:37.033Z,13.07
2017-04-23T09:16:48.079Z,13.1
2017-04-23T09:17:59.160Z,12.84
2017-04-23T09:19:10.201Z,12.59
2017-04-23T09:20:21.652Z,12.51
2017-04-23T09:21:32.689Z,12.18
2017-04-23T09:22:43.716Z,12.08
2017-04-23T09:23:54.999Z,12.04
2017-04-23T09:25:06.030Z,12.01
2017-04-23T09:26:17.057Z,11.81
2017-04-23T09:27:28.094Z,11.56
2017-04-23T09:28:39.136Z,11.53
2017-04-23T09:29:50.167Z,11.41
2017-04-23T09:31:01.400Z,11.42
2017-04-23T09:32:12.438Z,11.43
2017-04-23T09:33:23.473Z,11.46
2017-04-23T09:34:34.517Z,11.34
2017-04-23T09:35:45.600Z,11.24
2017-04-23T09:36:56.624Z,11.24
2017-04-23T09:38:07.854Z,11.35
2017-04-23T09:39:18.926Z,11.31
2017-04-23T09:40:29.959Z,11.39
2017-04-23T09:41:40.986Z,11.34
2017-04-23T09:42:52.027Z,11.31
2017-04-23T09:44:03.056Z,11.2
2017-04-23T09:45:14.101Z,11.1
2017-04-23T09:46:25.133Z,10.98
2017-04-23T09:47:36.162Z,10.92
2017-04-23T09:48:47.185Z,10.87
2017-04-23T09:49:58.214Z,10.84
2017-04-23T09:51:09.296Z,10.85
2017-04-23T09:52:20.329Z,10.85
2017-04-23T09:53:31.553Z,10.84
2017-04-23T09:54:42.775Z,10.84
2017-04-23T09:55:53.818Z,10.91
2017-04-23T09:57:04.850Z,10.85
2017-04-23T09:58:15.891Z,11.05
2017-04-23T09:59:27.137Z,11
2017-04-23T10:00:38.218Z,11.05
2017-04-23T10:01:49.452Z,11.28
2017-04-23T10:03:00.474Z,11.3
2017-04-23T10:04:11.700Z,11.35
2017-04-23T10:05:22.921Z,11.41
2017-04-23T10:06:34.153Z,11.2
2017-04-23T10:07:45.180Z,11.03
2017-04-23T10:08:56.203Z,11.1
2017-04-23T10:10:07.244Z,11.13
2017-04-23T10:11:18.459Z,11.13
2017-04-23T10:12:29.487Z,11.1
2017-04-23T10:13:40.799Z,11.21
2017-04-23T10:14:51.832Z,11.15
2017-04-23T10:16:02.870Z,11.28
2017-04-23T10:17:13.955Z,11.3
2017-04-23T10:18:24.999Z,11.28
2017-04-23T10:19:36.039Z,11.27
2017-04-23T10:20:47.091Z,11.28
2017-04-23T10:21:58.121Z,11.23
2017-04-23T10:23:09.143Z,11.21
2017-04-23T10:24:20.176Z,11.05
2017-04-23T10:25:31.212Z,11.06
2017-04-23T10:26:42.256Z,11.03
2017-04-23T10:27:53.354Z,10.87
2017-04-23T10:29:04.390Z,10.84
2017-04-23T10:30:15.464Z,10.91
2017-04-23T10:31:26.504Z,10.83
2017-04-23T10:32:37.548Z,10.76
2017-04-23T10:33:48.588Z,10.77
2017-04-23T10:34:59.616Z,10.87
2017-04-23T10:36:10.649Z,11.03
2017-04-23T10:37:21.677Z,11.09
2017-04-23T10:38:33.159Z,11.26
2017-04-23T10:39:44.425Z,11.38
2017-04-23T10:40:55.653Z,11.59
2017-04-23T10:42:06.686Z,11.71
2017-04-23T10:43:17.930Z,12.08
2017-04-23T10:44:29.021Z,12.2
2017-04-23T10:45:40.054Z,12.29
2017-04-23T10:46:51.088Z,12.38
2017-04-23T10:48:02.573Z,12.44
2017-04-23T10:49:13.615Z,12.45
2017-04-23T10:50:24.654Z,12.61
2017-04-23T10:51:35.682Z,12.74
2017-04-23T10:52:46.715Z,12.86
2017-04-23T10:53:57.748Z,13.25
2017-04-23T10:55:08.986Z,13.5
2017-04-23T10:56:20.073Z,13.76
2017-04-23T10:57:31.113Z,13.76
2017-04-23T10:58:42.137Z,13.68
2017-04-23T10:59:53.174Z,13.83
2017-04-23T11:01:04.227Z,14.08
2017-04-23T11:02:15.258Z,14.39
2017-04-23T11:03:26.294Z,14.64
2017-04-23T11:04:37.528Z,14.75
2017-04-23T11:05:48.622Z,14.63
2017-04-23T11:06:59.653Z,14.83
2017-04-23T11:08:10.686Z,15.22
2017-04-23T11:09:21.944Z,15.43
2017-04-23T11:10:33.192Z,15.55
2017-04-23T11:11:44.242Z,15.44
2017-04-23T11:12:55.294Z,15.34
2017-04-23T11:14:06.335Z,15.44
2017-04-23T11:15:17.588Z,15.7
2017-04-23T11:16:28.673Z,15.98
2017-04-23T11:17:39.714Z,16.07
2017-04-23T11:18:50.961Z,15.98
2017-04-23T11:20:02.206Z,15.92
2017-04-23T11:21:13.450Z,15.86
2017-04-23T11:22:24.488Z,15.86
2017-04-23T11:23:35.535Z,15.93
2017-04-23T11:24:46.574Z,16.07
2017-04-23T11:25:57.815Z,16.34
2017-04-23T11:27:08.855Z,16.59
2017-04-23T11:28:20.097Z,16.97
2017-04-23T11:29:31.348Z,16.95
2017-04-23T11:30:42.383Z,16.65
2017-04-23T11:31:53.631Z,16.11
2017-04-23T11:33:04.875Z,15.8
2017-04-23T11:34:15.928Z,15.33
2017-04-23T11:35:26.963Z,15.19
2017-04-23T11:36:38.006Z,14.63
2017-04-23T11:37:49.089Z,14.33
2017-04-23T11:39:00.134Z,14.03
2017-04-23T11:40:11.165Z,13.88
2017-04-23T11:41:22.213Z,13.79
2017-04-23T11:42:33.260Z,13.47
2017-04-23T11:43:44.314Z,13.39
2017-04-23T11:44:55.556Z,13.32
2017-04-23T11:46:06.582Z,13.24
2017-04-23T11:47:18.023Z,13.07
2017-04-23T11:48:29.097Z,13.03
2017-04-23T11:49:40.146Z,12.88
2017-04-23T11:50:51.384Z,12.7
2017-04-23T11:52:02.620Z,12.59
2017-04-23T11:53:13.645Z,12.52
2017-04-23T11:54:24.677Z,12.45
2017-04-23T11:55:35.712Z,12.26
2017-04-23T11:56:46.750Z,12.26
2017-04-23T11:57:57.791Z,12.1
2017-04-23T11:59:08.877Z,12.22
2017-04-23T12:00:19.899Z,12.29
2017-04-23T12:01:30.943Z,12.43
2017-04-23T12:02:41.988Z,12.41
2017-04-23T12:03:53.010Z,12.38
2017-04-23T12:05:04.043Z,12.33
2017-04-23T12:06:15.078Z,12.2
2017-04-23T12:07:26.110Z,12.16
2017-04-23T12:08:37.342Z,12.01
2017-04-23T12:09:48.367Z,11.94
2017-04-23T12:10:59.392Z,11.88
2017-04-23T12:12:10.432Z,11.76
2017-04-23T12:13:21.470Z,11.76
2017-04-23T12:14:32.507Z,11.71
2017-04-23T12:15:43.554Z,11.56
2017-04-23T12:16:55.047Z,11.67
2017-04-23T12:18:06.083Z,11.56
2017-04-23T12:19:17.347Z,11.35
2017-04-23T12:20:28.371Z,11.34
2017-04-23T12:21:39.409Z,11.16
2017-04-23T12:22:50.624Z,11.1
2017-04-23T12:24:01.659Z,11.12
2017-04-23T12:25:12.890Z,11.05
2017-04-23T12:26:23.970Z,11.06
2017-04-23T12:27:35.213Z,11.43
2017-04-23T12:28:46.285Z,11.57
2017-04-23T12:29:57.338Z,11.78
2017-04-23T12:31:08.359Z,12.05
2017-04-23T12:32:19.400Z,12.08
2017-04-23T12:33:30.634Z,12.48
2017-04-23T12:34:41.694Z,12.62
2017-04-23T12:35:52.792Z,12.63
2017-04-23T12:37:03.929Z,12.88
2017-04-23T12:38:15.133Z,12.91
2017-04-23T12:39:26.230Z,13.06
2017-04-23T12:40:37.378Z,13.35
2017-04-23T12:41:48.501Z,13.55
2017-04-23T12:42:59.774Z,13.86
2017-04-23T12:44:10.848Z,13.9
2017-04-23T12:45:21.938Z,14.09
2017-04-23T12:46:33.202Z,14.31
2017-04-23T12:47:44.342Z,14.61
2017-04-23T12:48:55.672Z,14.61
2017-04-23T12:50:06.969Z,14.59
2017-04-23T12:51:18.134Z,14.52
2017-04-23T12:52:29.389Z,14.38
2017-04-23T12:53:40.675Z,14.27
2017-04-23T12:54:52.292Z,14.01
2017-04-23T12:56:03.398Z,13.79
2017-04-23T12:57:14.602Z,13.73
2017-04-23T12:58:26.228Z,13.83
2017-04-23T12:59:37.290Z,14.02
2017-04-23T13:00:48.451Z,14.2
2017-04-23T13:01:59.601Z,14.05
2017-04-23T13:03:10.903Z,14.05
2017-04-23T13:04:22.299Z,13.9
2017-04-23T13:05:33.448Z,13.9
2017-04-23T13:06:44.555Z,13.86
2017-04-23T13:07:55.653Z,13.47
2017-04-23T13:09:06.863Z,13.44
2017-04-23T13:10:17.989Z,13.42
2017-04-23T13:11:29.519Z,13.2
2017-04-23T13:12:40.647Z,13.21
2017-04-23T13:13:51.911Z,13.29
2017-04-23T13:15:03.269Z,13.36
2017-04-23T13:16:14.546Z,13.44
2017-04-23T13:17:25.657Z,13.68
2017-04-23T13:18:37.035Z,13.75
2017-04-23T13:19:48.132Z,13.68
2017-04-23T13:20:59.213Z,13.57
2017-04-23T13:22:10.369Z,13.48
2017-04-23T13:23:21.985Z,13.45
2017-04-23T13:24:33.162Z,13.48
2017-04-23T13:25:44.990Z,13.42
2017-04-23T13:26:56.137Z,13.31
2017-04-23T13:28:07.334Z,13.17
2017-04-23T13:29:18.442Z,13.2
2017-04-23T13:30:29.618Z,13.17
2017-04-23T13:31:40.791Z,13.09
2017-04-23T13:32:52.091Z,13.03
2017-04-23T13:34:03.446Z,12.92
2017-04-23T13:35:14.709Z,12.81
2017-04-23T13:36:25.839Z,12.88
2017-04-23T13:37:37.384Z,12.74
2017-04-23T13:38:48.490Z,12.59
2017-04-23T13:39:59.736Z,12.53
2017-04-23T13:41:11.093Z,12.59
2017-04-23T13:42:22.271Z,12.44
2017-04-23T13:43:33.409Z,12.41
2017-04-23T13:44:44.516Z,12.38
2017-04-23T13:45:55.924Z,12.31
2017-04-23T13:47:07.265Z,12.26
2017-04-23T13:48:18.386Z,12.08
2017-04-23T13:49:29.452Z,12
2017-04-23T13:50:40.539Z,11.91
2017-04-23T13:51:51.670Z,11.89
2017-04-23T13:53:02.774Z,12
2017-04-23T13:54:14.072Z,12.13
2017-04-23T13:55:25.526Z,12.08
2017-04-23T13:56:36.741Z,12.22
2017-04-23T13:57:47.950Z,12.31
2017-04-23T13:58:59.115Z,12.2
2017-04-23T14:00:10.865Z,12.2
2017-04-23T14:01:21.984Z,12.19
2017-04-23T14:02:33.215Z,12.1
2017-04-23T14:03:44.547Z,12.11
2017-04-23T14:04:55.871Z,12.19
2017-04-23T14:06:07.065Z,12.31
2017-04-23T14:07:18.629Z,12.41
2017-04-23T14:08:29.791Z,12.45
2017-04-23T14:09:41.019Z,12.73
2017-04-23T14:10:52.698Z,12.65
2017-04-23T14:12:04.741Z,12.62
2017-04-23T14:13:17.349Z,12.77
2017-04-23T14:14:29.282Z,12.71
2017-04-23T14:15:41.243Z,12.63
2017-04-23T14:16:54.108Z,12.73
2017-04-23T14:18:06.781Z,12.61
2017-04-23T14:19:18.473Z,12.56
2017-04-23T14:20:30.597Z,12.44
2017-04-23T14:21:42.768Z,12.38
2017-04-23T14:22:53.990Z,12.38
2017-04-23T14:24:05.270Z,12.56
2017-04-23T14:25:16.450Z,12.7
2017-04-23T14:26:27.617Z,12.89
2017-04-23T14:27:38.740Z,12.96
2017-04-23T14:28:50.131Z,12.95
2017-04-23T14:30:01.258Z,13.03
2017-04-23T14:31:12.359Z,13.09
2017-04-23T14:32:23.464Z,13.13
2017-04-23T14:33:34.538Z,13.29
2017-04-23T14:34:45.656Z,13.39
2017-04-23T14:35:56.791Z,13.44
2017-04-23T14:37:07.911Z,13.42
2017-04-23T14:38:18.986Z,13.28
2017-04-23T14:39:30.122Z,13.5
2017-04-23T14:40:41.200Z,13.42
2017-04-23T14:41:52.507Z,13.4
2017-04-23T14:43:03.612Z,13.32
2017-04-23T14:44:14.672Z,13.32
2017-04-23T14:45:25.738Z,13.27
2017-04-23T14:46:36.797Z,13.17
2017-04-23T14:47:47.894Z,13.03
2017-04-23T14:48:58.964Z,13.02
2017-04-23T14:50:10.005Z,13.13
2017-04-23T14:51:21.066Z,13.25
2017-04-23T14:52:32.317Z,13.35
2017-04-23T14:53:43.378Z,13.36
2017-04-23T14:54:54.435Z,13.4
2017-04-23T14:56:05.473Z,13.57
2017-04-23T14:57:16.584Z,13.44
2017-04-23T14:58:27.643Z,13.54
2017-04-23T14:59:38.700Z,13.69
2017-04-23T15:00:49.758Z,13.75
2017-04-23T15:02:00.836Z,13.7
2017-04-23T15:03:12.095Z,13.4
2017-04-23T15:04:23.124Z,13.42
2017-04-23T15:05:34.196Z,13.28
2017-04-23T15:06:45.252Z,13.19
2017-04-23T15:07:56.565Z,13.16
2017-04-23T15:09:07.628Z,13.25
2017-04-23T15:10:18.675Z,13.2
2017-04-23T15:11:29.736Z,13.29
2017-04-23T15:12:40.765Z,13.37
2017-04-23T15:13:51.834Z,13.4
2017-04-23T15:15:02.903Z,13.27
2017-04-23T15:16:13.941Z,13.45
2017-04-23T15:17:25.007Z,13.42
2017-04-23T15:18:36.102Z,13.29
2017-04-23T15:19:47.574Z,13.27
2017-04-23T15:20:58.634Z,13.36
2017-04-23T15:22:09.673Z,13.37
2017-04-23T15:23:20.724Z,13.4
2017-04-23T15:24:31.825Z,13.4
2017-04-23T15:25:42.866Z,13.58
2017-04-23T15:26:53.911Z,13.6
2017-04-23T15:28:04.950Z,13.5
2017-04-23T15:29:15.994Z,13.45
2017-04-23T15:30:27.051Z,13.37
2017-04-23T15:31:38.085Z,13.39
2017-04-23T15:32:49.343Z,13.37
2017-04-23T15:34:00.413Z,13.27
2017-04-23T15:35:11.478Z,13.2